createdAt,value
2022-12-05T00:00:36.544Z,25.98
2022-12-05T00:03:23.520Z,25.25
2022-12-05T00:06:04.613Z,24.67
2022-12-05T00:08:51.486Z,23.52
2022-12-05T00:11:27.565Z,26.02
2022-12-05T00:14:15.478Z,29.70
2022-12-05T00:16:49.648Z,29.15
2022-12-05T00:19:36.524Z,26.45
2022-12-05T00:22:09.562Z,28.23
2022-12-05T00:24:58.636Z,30.33
2022-12-05T00:27:31.616Z,29.50
2022-12-05T00:30:18.528Z,26.33
2022-12-05T00:32:51.575Z,26.10
2022-12-05T00:35:40.547Z,31.05
2022-12-05T00:38:13.587Z,27.92
2022-12-05T00:41:00.538Z,29.90
2022-12-05T00:43:40.523Z,31.77
2022-12-05T00:46:32.565Z,33.33
2022-12-05T00:49:13.502Z,30.60
2022-12-05T00:52:07.512Z,33.08
2022-12-05T00:54:57.208Z,32.40
2022-12-05T00:57:30.595Z,26.92
2022-12-05T01:00:17.509Z,35.38
2022-12-05T01:02:57.550Z,28.83
2022-12-05T01:05:44.537Z,28.95
2022-12-05T01:08:25.516Z,27.92
2022-12-05T01:11:21.527Z,32.22
2022-12-05T01:14:08.532Z,29.73
2022-12-05T01:16:43.629Z,25.60
2022-12-05T01:19:33.508Z,25.00
2022-12-05T01:22:07.591Z,24.13
2022-12-05T01:24:55.513Z,22.48
2022-12-05T01:27:35.574Z,21.38
2022-12-05T01:30:22.565Z,24.48
2022-12-05T01:32:55.635Z,27.30
2022-12-05T01:35:44.569Z,24.77
2022-12-05T01:38:19.619Z,26.00
2022-12-05T01:41:08.574Z,25.65
2022-12-05T01:43:59.665Z,30.15
2022-12-05T01:46:52.545Z,28.30
2022-12-05T01:49:38.579Z,27.42
2022-12-05T01:52:37.528Z,29.00
2022-12-05T01:55:32.528Z,29.98
2022-12-05T01:58:26.535Z,29.83
2022-12-05T02:01:13.627Z,28.02
2022-12-05T02:03:57.524Z,25.35
2022-12-05T02:06:51.559Z,25.27
2022-12-05T02:09:45.547Z,26.90
2022-12-05T02:12:32.543Z,27.20
2022-12-05T02:15:41.541Z,27.13
2022-12-05T02:18:53.536Z,28.00
2022-12-05T02:21:53.554Z,28.27
2022-12-05T02:25:09.527Z,29.05
2022-12-05T02:28:27.556Z,29.15
2022-12-05T02:31:11.916Z,25.58
2022-12-05T02:34:13.606Z,26.48
2022-12-05T02:36:52.609Z,24.17
2022-12-05T02:39:51.567Z,26.70
2022-12-05T02:42:46.543Z,28.13
2022-12-05T02:45:36.570Z,27.02
2022-12-05T02:48:19.552Z,27.92
2022-12-05T02:51:09.550Z,25.95
2022-12-05T02:53:44.630Z,26.15
2022-12-05T02:56:33.539Z,27.42
2022-12-05T02:59:19.915Z,25.88
2022-12-05T03:02:09.560Z,26.13
2022-12-05T03:04:49.530Z,28.17
2022-12-05T03:07:44.624Z,25.65
2022-12-05T03:10:34.552Z,27.00
2022-12-05T03:13:22.580Z,25.02
2022-12-05T03:16:22.580Z,26.52
2022-12-05T03:19:23.569Z,27.90
2022-12-05T03:22:11.559Z,29.92
2022-12-05T03:24:58.568Z,26.30
2022-12-05T03:28:00.559Z,24.75
2022-12-05T03:30:55.589Z,26.35
2022-12-05T03:33:48.561Z,24.73
2022-12-05T03:36:25.630Z,24.77
2022-12-05T03:39:16.571Z,24.90
2022-12-05T03:42:01.631Z,25.40
2022-12-05T03:45:13.576Z,24.55
2022-12-05T03:48:04.642Z,25.80
2022-12-05T03:51:01.572Z,24.27
2022-12-05T03:53:53.563Z,25.33
2022-12-05T03:56:33.496Z,25.73
2022-12-05T03:59:32.567Z,26.40
2022-12-05T04:02:13.634Z,24.80
2022-12-05T04:05:10.584Z,25.92
2022-12-05T04:07:46.704Z,24.48
2022-12-05T04:10:38.607Z,24.40
2022-12-05T04:13:19.681Z,24.10
2022-12-05T04:16:30.566Z,25.75
2022-12-05T04:19:19.597Z,24.50
2022-12-05T04:22:13.589Z,25.90
2022-12-05T04:25:29.592Z,25.05
2022-12-05T04:28:41.619Z,24.80
2022-12-05T04:31:45.580Z,27.02
2022-12-05T04:34:34.575Z,25.67
2022-12-05T04:37:13.679Z,23.92
2022-12-05T04:40:08.573Z,27.58
2022-12-05T04:42:44.733Z,25.17
2022-12-05T04:45:32.598Z,25.67
2022-12-05T04:48:18.579Z,27.20
2022-12-05T04:51:12.593Z,23.98
2022-12-05T04:54:05.593Z,26.88
2022-12-05T04:56:42.678Z,27.40
2022-12-05T04:59:29.594Z,28.02
2022-12-05T05:02:09.063Z,31.35
2022-12-05T05:04:58.589Z,29.88
2022-12-05T05:07:31.710Z,30.75
2022-12-05T05:10:21.597Z,30.58
2022-12-05T05:13:01.598Z,25.35
2022-12-05T05:15:55.651Z,33.63
2022-12-05T05:18:42.600Z,28.98
2022-12-05T05:21:25.718Z,24.88
2022-12-05T05:24:13.607Z,29.48
2022-12-05T05:26:55.530Z,25.10
2022-12-05T05:29:43.607Z,25.10
2022-12-05T05:32:16.679Z,27.40
2022-12-05T05:35:03.608Z,27.58
2022-12-05T05:37:36.670Z,26.00
2022-12-05T05:40:23.589Z,30.38
2022-12-05T05:43:03.628Z,26.80
2022-12-05T05:45:57.597Z,29.42
2022-12-05T05:48:51.601Z,29.48
2022-12-05T05:51:39.621Z,29.50
2022-12-05T05:54:12.661Z,30.05
2022-12-05T05:56:59.652Z,29.63
2022-12-05T05:59:32.672Z,27.33
2022-12-05T06:02:19.654Z,31.23
2022-12-05T06:04:52.683Z,25.70
2022-12-05T06:07:39.687Z,25.67
2022-12-05T06:10:13.693Z,26.75
2022-12-05T06:13:00.654Z,29.17
2022-12-05T06:15:33.700Z,29.73
2022-12-05T06:18:20.603Z,27.92
2022-12-05T06:21:00.773Z,28.85
2022-12-05T06:23:47.626Z,31.48
2022-12-05T06:26:23.956Z,32.40
2022-12-05T06:29:10.635Z,33.58
2022-12-05T06:31:43.773Z,27.83
2022-12-05T06:34:30.625Z,30.77
2022-12-05T06:37:10.633Z,30.27
2022-12-05T06:40:04.691Z,32.90
2022-12-05T06:42:51.632Z,37.35
2022-12-05T06:45:24.697Z,38.83
2022-12-05T06:48:11.652Z,29.85
2022-12-05T06:50:51.632Z,31.02
2022-12-05T06:53:38.650Z,31.48
2022-12-05T06:56:14.775Z,30.73
2022-12-05T06:59:02.636Z,33.42
2022-12-05T07:01:45.802Z,46.78
2022-12-05T07:04:39.643Z,49.20
2022-12-05T07:07:26.644Z,37.67
2022-12-05T07:10:06.632Z,40.47
2022-12-05T07:13:00.654Z,35.40
2022-12-05T07:15:54.642Z,51.67
2022-12-05T07:18:42.630Z,51.45
2022-12-05T07:21:28.661Z,55.53
2022-12-05T07:24:22.632Z,56.03
2022-12-05T07:27:09.652Z,39.63
2022-12-05T07:29:42.724Z,33.88
2022-12-05T07:32:29.658Z,31.13
2022-12-05T07:35:02.782Z,31.10
2022-12-05T07:37:49.642Z,30.98
2022-12-05T07:40:22.758Z,31.23
2022-12-05T07:43:09.650Z,31.67
2022-12-05T07:45:49.699Z,35.85
2022-12-05T07:48:43.653Z,34.83
2022-12-05T07:51:37.669Z,36.25
2022-12-05T07:54:24.676Z,34.70
2022-12-05T07:57:04.637Z,33.42
2022-12-05T07:59:58.863Z,35.08
2022-12-05T08:02:45.708Z,37.88
2022-12-05T08:05:25.664Z,38.03
2022-12-05T08:08:19.706Z,40.90
2022-12-05T08:11:24.674Z,34.28
2022-12-05T08:14:19.658Z,35.67
2022-12-05T08:17:13.770Z,40.28
2022-12-05T08:20:07.670Z,38.25
2022-12-05T08:23:01.662Z,38.15
2022-12-05T08:25:48.687Z,36.72
2022-12-05T08:28:21.732Z,27.40
2022-12-05T08:31:14.781Z,28.27
2022-12-05T08:33:48.779Z,27.05
2022-12-05T08:36:36.667Z,27.52
2022-12-05T08:39:14.235Z,29.30
2022-12-05T08:42:00.674Z,26.60
2022-12-05T08:44:33.762Z,22.52
2022-12-05T08:47:20.683Z,24.65
2022-12-05T08:49:53.745Z,28.83
2022-12-05T08:52:40.682Z,24.27
2022-12-05T08:55:21.668Z,23.38
2022-12-05T08:58:08.684Z,26.67
2022-12-05T09:00:48.681Z,23.25
2022-12-05T09:03:35.692Z,23.40
2022-12-05T09:06:29.938Z,25.27
2022-12-05T09:09:17.672Z,22.20
2022-12-05T09:11:58.688Z,21.95
2022-12-05T09:14:45.695Z,22.38
2022-12-05T09:17:18.796Z,23.52
2022-12-05T09:20:05.689Z,22.40
2022-12-05T09:22:39.773Z,22.15
2022-12-05T09:25:26.756Z,19.92
2022-12-05T09:27:59.764Z,21.33
2022-12-05T09:30:46.730Z,20.58
2022-12-05T09:33:19.754Z,21.67
2022-12-05T09:36:12.710Z,22.15
2022-12-05T09:38:46.779Z,25.70
2022-12-05T09:42:13.716Z,24.75
2022-12-05T09:44:52.760Z,20.60
2022-12-05T09:47:42.687Z,20.00
2022-12-05T09:50:34.724Z,20.40
2022-12-05T09:53:47.683Z,20.30
2022-12-05T09:56:36.713Z,23.83
2022-12-05T09:59:09.769Z,19.70
2022-12-05T10:02:02.778Z,22.55
2022-12-05T10:04:39.149Z,19.88
2022-12-05T10:07:32.744Z,20.42
2022-12-05T10:10:34.816Z,20.92
2022-12-05T10:13:33.699Z,20.42
2022-12-05T10:16:11.843Z,22.08
2022-12-05T10:19:15.711Z,22.90
2022-12-05T10:22:02.865Z,21.02
2022-12-05T10:24:53.720Z,21.33
2022-12-05T10:27:40.030Z,19.33
2022-12-05T10:30:29.730Z,19.30
2022-12-05T10:33:09.645Z,17.92
2022-12-05T10:36:00.727Z,23.50
2022-12-05T10:38:36.915Z,20.90
2022-12-05T10:41:24.716Z,19.55
2022-12-05T10:44:04.711Z,19.30
2022-12-05T10:46:58.785Z,18.15
2022-12-05T10:49:46.761Z,17.67
2022-12-05T10:52:20.790Z,16.42
2022-12-05T10:55:12.757Z,16.98
2022-12-05T10:57:52.721Z,16.70
2022-12-05T11:00:39.739Z,18.38
2022-12-05T11:03:45.803Z,20.02
2022-12-05T11:06:38.716Z,19.80
2022-12-05T11:09:19.885Z,18.90
2022-12-05T11:12:15.727Z,16.90
2022-12-05T11:15:01.250Z,18.60
2022-12-05T11:17:47.732Z,17.70
2022-12-05T11:20:33.788Z,19.10
2022-12-05T11:23:39.732Z,17.98
2022-12-05T11:26:35.765Z,16.45
2022-12-05T11:29:10.819Z,19.75
2022-12-05T11:31:58.720Z,19.50
2022-12-05T11:34:41.832Z,18.55
2022-12-05T11:37:35.744Z,17.50
2022-12-05T11:40:29.423Z,17.05
2022-12-05T11:43:33.754Z,18.13
2022-12-05T11:47:06.848Z,18.98
2022-12-05T11:50:18.769Z,18.77
2022-12-05T11:53:27.751Z,18.20
2022-12-05T11:56:26.754Z,18.10
2022-12-05T11:59:04.843Z,17.58
2022-12-05T12:02:12.829Z,18.40
2022-12-05T12:05:30.760Z,18.40
2022-12-05T12:08:49.757Z,19.10
2022-12-05T12:11:46.822Z,17.77
2022-12-05T12:14:59.977Z,22.58
2022-12-05T12:17:35.828Z,18.60
2022-12-05T12:20:53.774Z,26.03
2022-12-05T12:23:42.748Z,23.63
2022-12-05T12:26:44.774Z,23.88
2022-12-05T12:29:36.825Z,19.30
2022-12-05T12:32:52.760Z,17.08
2022-12-05T12:36:03.761Z,17.98
2022-12-05T12:38:56.859Z,18.05
2022-12-05T12:42:19.761Z,19.05
2022-12-05T12:44:59.417Z,18.92
2022-12-05T12:47:49.772Z,18.83
2022-12-05T12:50:25.850Z,19.67
2022-12-05T12:53:33.761Z,22.30
2022-12-05T12:56:45.758Z,21.67
2022-12-05T13:00:00.881Z,21.95
2022-12-05T13:02:57.777Z,20.85
2022-12-05T13:05:57.775Z,22.17
2022-12-05T13:09:06.788Z,21.27
2022-12-05T13:11:55.785Z,23.40
2022-12-05T13:14:31.833Z,22.65
2022-12-05T13:17:24.787Z,26.98
2022-12-05T13:19:59.854Z,22.30
2022-12-05T13:22:46.769Z,20.80
2022-12-05T13:25:29.793Z,22.30
2022-12-05T13:28:41.781Z,19.02
2022-12-05T13:31:19.367Z,27.70
2022-12-05T13:34:05.798Z,27.92
2022-12-05T13:37:11.759Z,46.35
2022-12-05T13:40:26.837Z,55.13
2022-12-05T13:43:13.805Z,25.45
2022-12-05T13:45:58.962Z,37.38
2022-12-05T13:48:48.785Z,23.70
2022-12-05T13:51:39.894Z,20.88
2022-12-05T13:54:30.780Z,29.80
2022-12-05T13:57:12.831Z,24.50
2022-12-05T14:00:21.813Z,22.17
2022-12-05T14:03:21.802Z,20.58
2022-12-05T14:06:15.789Z,19.52
2022-12-05T14:09:02.779Z,20.60
2022-12-05T14:11:35.898Z,19.92
2022-12-05T14:15:00.802Z,20.05
2022-12-05T14:17:43.803Z,21.67
2022-12-05T14:20:49.788Z,28.90
2022-12-05T14:23:42.610Z,27.75
2022-12-05T14:26:57.818Z,25.13
2022-12-05T14:30:03.809Z,24.02
2022-12-05T14:32:50.799Z,21.52
2022-12-05T14:35:23.899Z,25.60
2022-12-05T14:38:27.813Z,40.47
2022-12-05T14:41:06.603Z,57.25
2022-12-05T14:44:03.812Z,41.15
2022-12-05T14:46:47.813Z,33.92
2022-12-05T14:49:46.956Z,38.40
2022-12-05T14:52:34.823Z,39.63
2022-12-05T14:55:27.109Z,38.72
2022-12-05T14:58:10.819Z,38.30
2022-12-05T15:01:12.823Z,123.00
2022-12-05T15:04:05.846Z,102.25
2022-12-05T15:06:49.812Z,63.22
2022-12-05T15:09:41.821Z,41.08
2022-12-05T15:12:49.911Z,44.10
2022-12-05T15:15:58.870Z,35.40
2022-12-05T15:18:48.811Z,35.90
2022-12-05T15:21:55.883Z,36.80
2022-12-05T15:24:52.819Z,30.75
2022-12-05T15:27:46.834Z,25.70
2022-12-05T15:30:35.853Z,32.53
2022-12-05T15:33:15.807Z,37.20
2022-12-05T15:36:09.827Z,33.47
2022-12-05T15:38:56.872Z,48.25
2022-12-05T15:41:29.921Z,50.75
2022-12-05T15:44:25.293Z,45.55
2022-12-05T15:47:02.920Z,41.65
2022-12-05T15:49:49.841Z,39.42
2022-12-05T15:52:41.841Z,36.97
2022-12-05T15:55:44.856Z,36.95
2022-12-05T15:58:34.857Z,33.70
2022-12-05T16:01:23.039Z,45.65
2022-12-05T16:04:30.868Z,51.35
2022-12-05T16:07:13.911Z,50.63
2022-12-05T16:10:11.849Z,51.40
2022-12-05T16:12:59.855Z,65.00
2022-12-05T16:15:33.956Z,71.32
2022-12-05T16:18:46.851Z,81.70
2022-12-05T16:21:58.865Z,74.53
2022-12-05T16:24:58.829Z,59.75
2022-12-05T16:27:52.859Z,52.05
2022-12-05T16:30:47.119Z,42.28
2022-12-05T16:33:40.282Z,45.70
2022-12-05T16:36:18.931Z,55.15
2022-12-05T16:39:14.981Z,56.22
2022-12-05T16:41:52.995Z,54.14
2022-12-05T16:44:51.872Z,52.22
2022-12-05T16:47:39.867Z,60.60
2022-12-05T16:50:35.841Z,60.53
2022-12-05T16:53:38.882Z,60.65
2022-12-05T16:56:13.941Z,54.65
2022-12-05T16:59:00.883Z,41.58
2022-12-05T17:01:38.711Z,31.88
2022-12-05T17:04:25.925Z,28.05
2022-12-05T17:07:05.896Z,23.83
2022-12-05T17:09:59.857Z,20.65
2022-12-05T17:12:53.877Z,25.20
2022-12-05T17:15:47.926Z,23.65
2022-12-05T17:18:34.886Z,51.70
2022-12-05T17:21:09.022Z,65.20
2022-12-05T17:23:55.881Z,50.67
2022-12-05T17:26:36.883Z,45.53
2022-12-05T17:29:23.864Z,37.72
2022-12-05T17:32:03.985Z,37.15
2022-12-05T17:35:01.146Z,37.55
2022-12-05T17:37:50.881Z,37.45
2022-12-05T17:40:30.895Z,37.63
2022-12-05T17:43:26.846Z,40.85
2022-12-05T17:46:14.906Z,35.13
2022-12-05T17:48:47.981Z,42.03
2022-12-05T17:51:48.088Z,33.83
2022-12-05T17:54:27.952Z,28.15
2022-12-05T17:57:14.903Z,25.55
2022-12-05T17:59:47.983Z,26.55
2022-12-05T18:02:34.898Z,28.00
2022-12-05T18:05:07.987Z,28.58
2022-12-05T18:07:54.982Z,33.13
2022-12-05T18:10:29.967Z,42.00
2022-12-05T18:13:16.923Z,43.55
2022-12-05T18:15:50.961Z,45.88
2022-12-05T18:18:37.919Z,52.97
2022-12-05T18:21:25.905Z,59.50
2022-12-05T18:24:19.914Z,53.75
2022-12-05T18:27:06.906Z,60.08
2022-12-05T18:29:40.038Z,63.78
2022-12-05T18:32:26.906Z,57.53
2022-12-05T18:35:01.978Z,66.55
2022-12-05T18:37:48.907Z,58.88
2022-12-05T18:40:28.983Z,57.53
2022-12-05T18:43:22.912Z,53.50
2022-12-05T18:46:10.944Z,38.42
2022-12-05T18:48:47.418Z,38.80
2022-12-05T18:51:34.903Z,42.03
2022-12-05T18:54:07.998Z,39.78
2022-12-05T18:56:56.914Z,38.95
2022-12-05T18:59:30.685Z,32.10
2022-12-05T19:02:17.969Z,31.02
2022-12-05T19:04:50.991Z,32.60
2022-12-05T19:07:37.973Z,26.88
2022-12-05T19:10:11.991Z,32.35
2022-12-05T19:12:58.908Z,29.40
2022-12-05T19:15:38.888Z,31.88
2022-12-05T19:18:32.916Z,32.90
2022-12-05T19:21:26.909Z,26.85
2022-12-05T19:24:21.947Z,41.35
2022-12-05T19:27:08.931Z,51.92
2022-12-05T19:29:48.929Z,47.95
2022-12-05T19:32:40.048Z,46.30
2022-12-05T19:35:20.935Z,41.10
2022-12-05T19:38:14.934Z,48.85
2022-12-05T19:41:03.923Z,45.08
2022-12-05T19:43:38.064Z,46.58
2022-12-05T19:46:28.154Z,49.97
2022-12-05T19:49:03.079Z,43.47
2022-12-05T19:51:50.948Z,52.05
2022-12-05T19:54:24.294Z,58.53
2022-12-05T19:57:10.926Z,62.17
2022-12-05T19:59:50.913Z,49.63
2022-12-05T20:02:45.985Z,55.80
2022-12-05T20:05:39.936Z,49.80
2022-12-05T20:08:33.967Z,49.33
2022-12-05T20:11:25.940Z,38.60
2022-12-05T20:14:07.962Z,33.58
2022-12-05T20:17:02.000Z,35.58
2022-12-05T20:19:48.916Z,34.67
2022-12-05T20:22:28.955Z,39.38
2022-12-05T20:25:22.939Z,32.90
2022-12-05T20:28:11.945Z,25.52
2022-12-05T20:30:45.667Z,26.50
2022-12-05T20:33:31.976Z,28.20
2022-12-05T20:36:20.969Z,26.33
2022-12-05T20:39:26.945Z,23.15
2022-12-05T20:42:21.004Z,29.27
2022-12-05T20:45:07.948Z,21.13
2022-12-05T20:47:41.024Z,25.08
2022-12-05T20:50:28.008Z,33.15
2022-12-05T20:53:07.980Z,28.83
2022-12-05T20:55:54.988Z,26.50
2022-12-05T20:58:28.024Z,30.08
2022-12-05T21:01:17.003Z,30.95
2022-12-05T21:03:58.962Z,38.13
2022-12-05T21:06:48.975Z,37.30
2022-12-05T21:09:36.968Z,28.15
2022-12-05T21:12:30.974Z,22.95
2022-12-05T21:15:17.969Z,21.58
2022-12-05T21:17:51.031Z,27.58
2022-12-05T21:20:42.115Z,28.05
2022-12-05T21:23:22.959Z,28.95
2022-12-05T21:26:12.978Z,31.30
2022-12-05T21:28:53.964Z,31.33
2022-12-05T21:31:51.977Z,30.30
2022-12-05T21:34:38.969Z,35.83
2022-12-05T21:37:12.032Z,24.27
2022-12-05T21:39:59.184Z,23.52
2022-12-05T21:42:32.101Z,27.70
2022-12-05T21:45:18.989Z,26.33
2022-12-05T21:47:52.124Z,32.97
2022-12-05T21:50:38.960Z,33.60
2022-12-05T21:53:12.093Z,28.95
2022-12-05T21:56:09.977Z,28.83
2022-12-05T21:58:51.990Z,22.20
2022-12-05T22:01:39.024Z,24.30
2022-12-05T22:04:12.032Z,22.35
2022-12-05T22:06:59.009Z,23.00
2022-12-05T22:09:38.963Z,21.58
2022-12-05T22:12:25.983Z,21.25
2022-12-05T22:15:05.987Z,22.52
2022-12-05T22:18:00.004Z,22.90
2022-12-05T22:20:53.985Z,21.67
2022-12-05T22:23:47.982Z,21.55
2022-12-05T22:26:42.009Z,20.60
2022-12-05T22:29:29.065Z,25.67
2022-12-05T22:32:08.992Z,24.88
2022-12-05T22:35:04.289Z,30.17
2022-12-05T22:37:51.000Z,26.02
2022-12-05T22:40:24.060Z,26.92
2022-12-05T22:43:10.991Z,28.77
2022-12-05T22:45:51.011Z,30.88
2022-12-05T22:48:38.024Z,28.08
2022-12-05T22:51:20.042Z,25.60
2022-12-05T22:54:13.993Z,30.08
2022-12-05T22:57:01.034Z,27.70
2022-12-05T22:59:41.011Z,24.85
2022-12-05T23:03:30.103Z,24.75
2022-12-05T23:06:43.055Z,24.33
2022-12-05T23:09:30.055Z,23.17
2022-12-05T23:12:06.095Z,25.15
2022-12-05T23:14:53.038Z,24.98
2022-12-05T23:17:26.124Z,24.05
2022-12-05T23:20:14.034Z,26.50
2022-12-05T23:22:54.064Z,24.65
2022-12-05T23:25:41.048Z,23.35
2022-12-05T23:28:21.033Z,22.65
2022-12-05T23:31:19.101Z,22.48
2022-12-05T23:34:06.051Z,24.48
2022-12-05T23:36:41.178Z,22.00
2022-12-05T23:39:28.065Z,21.85
2022-12-05T23:42:01.104Z,21.25
2022-12-05T23:44:48.073Z,19.77
2022-12-05T23:47:21.114Z,21.60
2022-12-05T23:50:08.061Z,20.80
2022-12-05T23:52:43.094Z,20.92
2022-12-05T23:55:30.095Z,21.50
2022-12-05T23:58:03.125Z,21.17
